Airport Name : Kiel Holtenau

Other Name : Kiel Holtenau

ICAO : EDHK

IATA : KEL

FAA :

Latitude : 54.3795

Longitude : 10.145167

Country : Germany

Local Date and Time : 09 Mar 2021 02:42

 

TAF (Terminal Aerodrome Forecast)

 

METAR (METeorological Aerodrome Report)

EDHK 090120Z AUTO 14005KT 9999 // BKN180/// 00/M07 Q1020

EDHK 090050Z AUTO 15004KT 120V180 9999 // BKN180/// 00/M06 Q1020

EDHK 090020Z AUTO 14005KT 9999 // FEW093/// BKN190/// 00/M06 Q1021

EDHK 082350Z AUTO 14005KT 9999 // BKN180/// 00/M05 Q1021

EDHK 082320Z AUTO 14005KT 9999 // BKN170/// 00/M05 Q1021

EDHK 082250Z AUTO 14007KT 9999 // BKN140/// 01/M05 Q1021

EDHK 082220Z AUTO 13007KT 9999 // NCD 01/M06 Q1021

EDHK 082150Z AUTO 14005KT 100V170 9999 // FEW120/// 01/M07 Q1022

To Charter a Jet Click here.